Time;durP1;ratioP1;P1;durP2;ratioP2;P2;SDS_P1;SDS_P2;PMS_P1;PMS_P2;Temp;Humidity;BMP_temperature;BMP_pressure;BME280_temperature;BME280_humidity;BME280_pressure;Samples;Min_cycle;Max_cycle;Signal;HPM_P1;HPM_P2
2021/06/08 00:02:16;;;;;;;3.00;2.10;;;;;;;16.67;69.67;99912.80;1652896;85;21001;-74
2021/06/08 00:04:42;;;;;;;4.22;2.90;;;;;;;16.69;69.80;99914.72;1656895;85;21033;-75
2021/06/08 00:07:08;;;;;;;;;;;;;;;16.69;69.94;99916.07;1657415;85;21496;-75
2021/06/08 00:09:34;;;;;;;3.27;3.08;;;;;;;16.71;70.02;99918.53;1649245;85;20112;-74
2021/06/08 00:12:01;;;;;;;7.50;2.75;;;;;;;16.63;70.30;99921.58;1647095;84;21005;-73
2021/06/08 00:14:27;;;;;;;;;;;;;;;16.59;70.46;99918.54;1659360;85;21072;-74
2021/06/08 00:16:53;;;;;;;3.42;3.22;;;;;;;16.61;70.56;99927.72;1656746;85;20102;-73
2021/06/08 00:19:19;;;;;;;3.15;2.77;;;;;;;16.59;70.56;99924.45;1633530;86;21019;-74
2021/06/08 00:21:46;;;;;;;3.15;2.92;;;;;;;16.61;70.81;99918.30;1658664;85;21017;-73
2021/06/08 00:24:12;;;;;;;4.35;3.00;;;;;;;16.63;70.71;99925.11;1650947;84;21048;-73
2021/06/08 00:26:39;;;;;;;4.25;2.37;;;;;;;16.64;70.87;99925.91;1653351;85;21587;-73
2021/06/08 00:29:05;;;;;;;3.02;2.80;;;;;;;16.60;70.92;99930.14;1647080;85;21076;-74
2021/06/08 00:31:31;;;;;;;3.20;2.90;;;;;;;16.56;71.17;99927.11;1662324;85;21076;-73
2021/06/08 00:33:57;;;;;;;3.15;2.83;;;;;;;16.54;71.17;99925.99;1662193;84;21690;-72
2021/06/08 00:36:23;;;;;;;2.83;2.72;;;;;;;16.58;71.14;99914.23;1657775;85;21582;-74
2021/06/08 00:38:49;;;;;;;3.30;2.90;;;;;;;16.64;71.18;99913.27;1646272;85;21036;-72
2021/06/08 00:41:15;;;;;;;;;;;;;;;16.68;70.99;99909.58;1656237;85;21055;-74
2021/06/08 00:43:41;;;;;;;3.30;3.10;;;;;;;16.68;70.97;99910.92;1662334;85;20394;-73
2021/06/08 00:46:07;;;;;;;3.33;3.08;;;;;;;16.60;71.11;99914.00;1662359;84;21021;-73
2021/06/08 00:48:34;;;;;;;3.92;3.17;;;;;;;16.57;71.28;99907.73;1665550;80;21020;-72
2021/06/08 00:50:59;;;;;;;;;;;;;;;16.57;71.29;99903.70;1665792;84;21036;-75
2021/06/08 00:53:26;;;;;;;3.58;3.27;;;;;;;16.61;71.26;99907.55;1663070;85;20547;-74
2021/06/08 00:55:52;;;;;;;2.95;2.75;;;;;;;16.58;71.27;99905.35;1663729;84;21091;-72
2021/06/08 00:58:20;;;;;;;3.55;3.25;;;;;;;16.61;71.39;99911.58;1663738;85;21486;-73
2021/06/08 01:00:48;;;;;;;3.33;2.87;;;;;;;16.60;71.17;99916.16;1656463;84;21604;-73
2021/06/08 01:03:15;;;;;;;3.08;2.83;;;;;;;16.60;71.17;99916.16;1664338;85;21040;-73
2021/06/08 01:05:42;;;;;;;3.58;3.27;;;;;;;16.56;71.60;99923.07;1661660;85;21084;-72
2021/06/08 01:08:10;;;;;;;6.47;3.52;;;;;;;16.56;71.60;99923.07;1654932;85;21037;-73
2021/06/08 01:10:37;;;;;;;4.08;2.83;;;;;;;16.58;71.48;99921.49;1662651;85;20958;-73
2021/06/08 01:13:02;;;;;;;3.50;3.30;;;;;;;16.57;71.49;99922.53;1663316;84;21082;-73
2021/06/08 01:15:28;;;;;;;3.65;3.45;;;;;;;16.55;71.52;99926.80;1662226;85;21072;-72
2021/06/08 01:17:54;;;;;;;3.52;3.27;;;;;;;16.52;71.62;99925.41;1658401;85;20973;-74
2021/06/08 01:20:21;;;;;;;3.87;3.65;;;;;;;16.47;71.79;99925.84;1663944;85;20979;-73
2021/06/08 01:22:47;;;;;;;5.70;4.25;;;;;;;16.44;71.92;99927.64;1646050;85;21020;-74
2021/06/08 01:25:14;;;;;;;3.95;3.58;;;;;;;16.44;71.82;99927.64;1659811;85;21022;-73
2021/06/08 01:27:41;;;;;;;3.77;3.58;;;;;;;16.49;71.83;99935.30;1659622;85;20993;-73
2021/06/08 01:30:09;;;;;;;3.08;2.87;;;;;;;16.49;71.81;99931.26;1657538;85;21120;-74
2021/06/08 01:32:40;;;;;;;3.80;3.50;;;;;;;16.47;71.84;99925.30;1647424;85;21120;-73
2021/06/08 01:35:10;;;;;;;3.67;3.45;;;;;;;16.44;71.97;99931.14;1613583;87;20999;-74
2021/06/08 01:37:40;;;;;;;3.60;3.40;;;;;;;16.36;72.27;99935.55;1627121;87;21110;-74
2021/06/08 01:40:14;;;;;;;5.85;4.25;;;;;;;16.28;72.43;99940.77;1621499;87;21098;-75
2021/06/08 01:42:41;;;;;;;6.60;3.52;;;;;;;16.23;72.63;99935.80;1623768;87;21047;-73
2021/06/08 01:45:09;;;;;;;3.92;3.67;;;;;;;16.22;72.70;99940.87;1652333;84;21032;-74
2021/06/08 01:47:35;;;;;;;4.45;3.77;;;;;;;16.20;72.92;99946.52;1678051;84;21529;-74
2021/06/08 01:50:02;;;;;;;;;;;;;;;16.18;72.98;99941.91;1682867;84;21020;-74
2021/06/08 01:52:48;;;;;;;4.08;3.75;;;;;;;16.16;73.08;99939.95;1685865;84;20170;-74
2021/06/08 01:55:25;;;;;;;3.95;3.67;;;;;;;16.10;73.23;99940.36;1679411;84;21032;-75
2021/06/08 01:57:57;;;;;;;6.28;4.10;;;;;;;16.05;73.45;99948.33;1684898;84;21225;-74
2021/06/08 02:00:29;;;;;;;4.53;4.33;;;;;;;15.99;73.69;99950.59;1666968;84;21725;-74
2021/06/08 02:03:06;;;;;;;5.40;3.33;;;;;;;15.98;73.80;99950.31;1672764;84;21781;-74
2021/06/08 02:05:38;;;;;;;3.50;3.40;;;;;;;16.03;73.88;99949.59;1679132;84;21029;-75
2021/06/08 02:08:41;;;;;;;5.10;4.28;;;;;;;16.01;73.79;99953.89;1686774;84;20989;-74
2021/06/08 02:11:15;;;;;;;4.37;3.92;;;;;;;16.01;74.08;99947.16;1688120;83;21020;-72
2021/06/08 02:13:47;;;;;;;4.97;4.67;;;;;;;16.01;74.02;99944.98;1674325;84;20989;-73
2021/06/08 02:16:46;;;;;;;4.42;4.22;;;;;;;16.01;74.15;99941.80;1675244;84;21628;-73
2021/06/08 02:19:16;;;;;;;6.15;4.62;;;;;;;16.10;74.24;99944.92;1673865;84;21040;-74
2021/06/08 02:21:46;;;;;;;5.70;3.92;;;;;;;16.35;73.69;99944.16;1679032;84;21502;-76
2021/06/08 02:24:21;;;;;;;4.95;4.45;;;;;;;16.99;72.09;99944.67;1665449;84;22283;-74
2021/06/08 02:26:50;;;;;;;4.42;4.12;;;;;;;16.99;72.09;99944.67;1677911;84;21100;-74
2021/06/08 02:29:20;;;;;;;4.85;4.45;;;;;;;17.31;70.77;99941.48;1680294;84;21503;-73
2021/06/08 02:31:48;;;;;;;4.58;3.98;;;;;;;17.55;70.05;99944.03;1676050;84;21024;-74
2021/06/08 02:34:16;;;;;;;5.70;4.08;;;;;;;17.79;68.68;99948.20;1670278;84;21041;-74
2021/06/08 02:36:45;;;;;;;4.95;4.55;;;;;;;17.94;68.02;99953.59;1637745;84;21495;-74
2021/06/08 02:39:13;;;;;;;5.28;4.28;;;;;;;18.11;67.48;99949.52;1673283;84;21053;-73
2021/06/08 02:41:41;;;;;;;4.60;4.20;;;;;;;18.28;66.95;99961.09;1671136;84;21551;-75
2021/06/08 02:44:09;;;;;;;5.12;3.80;;;;;;;18.49;66.01;99954.89;1673048;84;21032;-74
2021/06/08 02:46:37;;;;;;;5.15;4.72;;;;;;;18.75;65.33;99957.92;1671652;84;21095;-73
2021/06/08 02:49:04;;;;;;;5.87;4.25;;;;;;;18.96;64.49;99963.59;1653037;84;21060;-74
2021/06/08 02:51:31;;;;;;;5.40;5.10;;;;;;;19.13;64.03;99961.62;1673522;84;21040;-75
2021/06/08 02:53:58;;;;;;;4.55;4.20;;;;;;;19.34;63.37;99968.58;1663677;84;21069;-74
2021/06/08 02:56:24;;;;;;;5.78;3.92;;;;;;;19.60;62.33;99967.74;1662366;84;21626;-73
2021/06/08 02:58:52;;;;;;;4.50;4.22;;;;;;;19.87;61.76;99967.45;1661096;84;21041;-74
2021/06/08 03:01:20;;;;;;;6.22;4.05;;;;;;;20.18;60.86;99968.48;1644156;84;21017;-75
2021/06/08 03:03:54;;;;;;;4.80;4.60;;;;;;;20.52;59.69;99969.48;1673093;84;21566;-75
2021/06/08 03:06:26;;;;;;;7.42;6.15;;;;;;;20.78;59.04;99965.03;1672740;84;22131;-74
2021/06/08 03:09:13;;;;;;;5.00;4.03;;;;;;;21.15;57.76;99966.23;1661393;84;21123;-74
2021/06/08 03:11:45;;;;;;;4.35;3.95;;;;;;;21.41;56.76;99964.91;1672718;84;21163;-74
2021/06/08 03:14:15;;;;;;;6.03;4.05;;;;;;;21.56;56.18;99962.23;1673154;84;21136;-75
2021/06/08 03:16:52;;;;;;;3.90;3.70;;;;;;;21.68;55.54;99963.34;1673190;84;21029;-74
2021/06/08 03:19:21;;;;;;;4.85;4.45;;;;;;;21.78;55.27;99965.23;1637742;84;21503;-74
2021/06/08 03:21:54;;;;;;;4.83;4.53;;;;;;;21.91;54.53;99957.90;1670351;84;21507;-77
2021/06/08 03:27:27;;;;;;;4.45;3.52;;;;;;;22.19;54.13;99960.29;1785574;79;23192;-74
2021/06/08 03:29:56;;;;;;;4.12;3.70;;;;;;;22.30;53.93;99960.56;1758257;80;20940;-72
2021/06/08 03:32:25;;;;;;;6.55;4.50;;;;;;;22.50;53.07;99966.49;1719640;80;20966;-75
2021/06/08 03:34:52;;;;;;;3.98;3.72;;;;;;;22.55;52.85;99968.64;1671366;82;21036;-74
2021/06/08 03:37:21;;;;;;;5.03;4.58;;;;;;;22.58;52.86;99965.91;1645982;85;21021;-74
2021/06/08 03:39:49;;;;;;;3.98;3.77;;;;;;;22.74;52.72;99966.12;1650716;85;21053;-74
2021/06/08 03:42:16;;;;;;;4.22;3.87;;;;;;;22.93;51.92;99968.22;1648729;85;21004;-75
2021/06/08 03:44:42;;;;;;;4.85;3.92;;;;;;;23.00;51.74;99963.30;1645262;86;21100;-74
2021/06/08 03:47:09;;;;;;;4.92;4.47;;;;;;;23.13;52.02;99960.52;1650347;85;21017;-74
2021/06/08 03:49:37;;;;;;;4.42;4.22;;;;;;;23.37;51.19;99973.42;1644601;85;21543;-73
2021/06/08 03:52:06;;;;;;;6.90;4.55;;;;;;;23.58;50.55;99961.84;1646643;85;21060;-75
2021/06/08 03:54:33;;;;;;;4.67;4.28;;;;;;;23.90;50.20;99973.05;1645976;85;21055;-75
2021/06/08 03:57:02;;;;;;;5.03;4.53;;;;;;;24.02;48.93;99977.30;1655007;85;21085;-74
2021/06/08 03:59:29;;;;;;;4.30;4.10;;;;;;;24.01;49.35;99978.38;1670142;84;21071;-75
2021/06/08 04:01:57;;;;;;;4.47;4.17;;;;;;;24.04;48.71;99982.70;1644292;86;21042;-75
2021/06/08 04:04:24;;;;;;;4.15;3.75;;;;;;;23.99;48.95;99979.22;1645751;85;21082;-74
2021/06/08 04:06:51;;;;;;;4.42;4.12;;;;;;;24.03;49.20;99975.63;1654508;85;21554;-76
2021/06/08 04:09:18;;;;;;;4.08;3.77;;;;;;;24.27;48.79;99979.75;1651865;85;21527;-76
2021/06/08 04:11:51;;;;;;;3.77;3.47;;;;;;;24.44;48.00;99979.85;1651377;85;21024;-75
2021/06/08 04:14:20;;;;;;;4.58;4.28;;;;;;;24.33;48.64;99974.25;1651472;85;21097;-74
2021/06/08 04:16:47;;;;;;;4.08;3.87;;;;;;;24.41;48.42;99975.80;1645863;85;21508;-75
2021/06/08 04:19:15;;;;;;;4.53;4.33;;;;;;;24.50;48.01;99974.59;1645539;85;21040;-74
2021/06/08 04:21:43;;;;;;;4.05;3.65;;;;;;;24.50;48.53;99980.05;1649846;85;21085;-74
2021/06/08 04:24:11;;;;;;;5.97;4.15;;;;;;;24.61;47.75;99983.50;1639720;85;21049;-75
2021/06/08 04:26:38;;;;;;;3.72;3.52;;;;;;;24.62;47.44;99985.95;1649876;85;21063;-76
2021/06/08 04:29:05;;;;;;;4.03;3.77;;;;;;;24.55;47.69;99986.84;1633970;86;21092;-76
2021/06/08 04:31:32;;;;;;;3.72;3.50;;;;;;;24.64;47.77;99983.73;1646388;85;20998;-75
2021/06/08 04:33:58;;;;;;;5.08;3.90;;;;;;;24.84;47.06;99988.67;1623251;86;20997;-75
2021/06/08 04:36:24;;;;;;;4.12;3.83;;;;;;;24.91;46.45;99985.03;1622816;86;21157;-75
2021/06/08 04:38:53;;;;;;;3.80;3.67;;;;;;;24.72;47.04;99988.29;1647101;85;21554;-74
2021/06/08 04:41:20;;;;;;;4.83;4.47;;;;;;;24.65;47.40;99979.89;1646560;85;21011;-74
2021/06/08 04:43:47;;;;;;;3.70;3.60;;;;;;;24.78;47.18;99977.02;1648497;84;21006;-75
2021/06/08 04:46:15;;;;;;;3.85;3.58;;;;;;;24.81;47.27;99979.17;1666534;83;21078;-73
2021/06/08 04:48:43;;;;;;;3.90;3.72;;;;;;;24.72;47.10;99986.37;1667316;85;21584;-73
2021/06/08 04:51:10;;;;;;;3.50;3.30;;;;;;;24.33;48.08;99985.15;1667414;84;20963;-71
2021/06/08 04:53:37;;;;;;;4.00;3.52;;;;;;;23.86;49.22;99992.38;1669510;82;21636;-74
2021/06/08 04:56:06;;;;;;;5.17;4.78;;;;;;;23.51;50.24;99990.19;1652929;84;21555;-77
2021/06/08 04:58:38;;;;;;;4.22;4.00;;;;;;;23.47;50.27;99993.22;1666844;84;21665;-76
2021/06/08 05:01:27;;;;;;;4.25;3.98;;;;;;;23.55;50.55;99990.99;1640294;85;21350;-75
2021/06/08 05:03:59;;;;;;;4.78;4.10;;;;;;;23.77;50.08;99985.92;1636206;85;21611;-75
2021/06/08 05:06:29;;;;;;;4.33;4.03;;;;;;;24.05;48.78;99993.03;1677939;84;21021;-75
2021/06/08 05:09:06;;;;;;;5.40;5.00;;;;;;;24.08;49.15;99991.92;1642887;85;21119;-75
2021/06/08 05:11:53;;;;;;;4.17;3.83;;;;;;;24.08;48.94;99989.75;1641460;84;21061;-74
2021/06/08 05:14:22;;;;;;;4.70;4.42;;;;;;;24.18;48.76;99992.92;1664831;84;21010;-74
2021/06/08 05:16:50;;;;;;;3.90;3.70;;;;;;;24.20;48.98;99989.36;1643270;85;21082;-74
2021/06/08 05:19:19;;;;;;;4.90;4.60;;;;;;;24.31;48.43;99990.88;1672259;84;21560;-74
2021/06/08 05:21:46;;;;;;;5.03;4.53;;;;;;;24.32;48.53;99992.52;1680590;84;20985;-77
2021/06/08 05:24:16;;;;;;;4.42;4.22;;;;;;;24.19;49.21;99995.92;1650485;84;20997;-77
2021/06/08 05:26:46;;;;;;;5.35;5.05;;;;;;;24.03;49.29;99993.32;1648056;85;21033;-76
2021/06/08 05:29:19;;;;;;;4.85;4.42;;;;;;;23.99;49.47;99990.91;1638185;85;21073;-77
2021/06/08 05:31:46;;;;;;;8.05;4.55;;;;;;;24.13;50.03;99986.16;1667338;84;21040;-77
2021/06/08 05:34:15;;;;;;;3.92;3.62;;;;;;;24.31;49.23;99988.16;1647111;85;21561;-77
2021/06/08 05:36:42;;;;;;;3.90;3.60;;;;;;;24.44;48.91;99987.47;1641920;85;21060;-77
2021/06/08 05:39:09;;;;;;;4.80;4.40;;;;;;;24.55;48.21;99984.67;1654039;85;21017;-79
2021/06/08 05:41:37;;;;;;;4.67;4.35;;;;;;;24.56;48.16;99977.55;1641112;85;21072;-75
2021/06/08 05:44:05;;;;;;;4.42;4.22;;;;;;;24.42;49.00;99983.42;1644625;85;21081;-75
2021/06/08 05:46:33;;;;;;;4.03;3.83;;;;;;;24.51;49.14;99990.42;1639308;85;22188;-76
2021/06/08 05:49:00;;;;;;;4.60;4.40;;;;;;;24.67;48.61;99992.67;1671790;84;21396;-78
2021/06/08 05:51:31;;;;;;;3.58;3.05;;;;;;;24.88;48.91;99989.70;1640771;85;21371;-79
2021/06/08 05:53:58;;;;;;;3.75;3.45;;;;;;;25.23;47.06;99990.36;1664630;84;21009;-78
2021/06/08 05:56:26;;;;;;;2.62;2.52;;;;;;;25.47;46.15;99988.92;1674831;84;20997;-78
2021/06/08 05:58:54;;;;;;;3.85;2.47;;;;;;;25.39;46.77;99989.05;1630131;86;21068;-79
2021/06/08 06:01:22;;;;;;;3.50;3.15;;;;;;;25.35;45.64;99983.90;1664729;83;21030;-74
2021/06/08 06:03:52;;;;;;;3.02;2.83;;;;;;;25.21;46.55;99983.80;1680741;83;21062;-75
2021/06/08 06:06:19;;;;;;;5.25;2.55;;;;;;;25.00;47.09;99979.75;1683131;83;22127;-85
2021/06/08 06:08:46;;;;;;;2.90;2.75;;;;;;;24.77;47.63;99988.20;1680763;83;21488;-85
2021/06/08 06:11:16;;;;;;;2.65;2.55;;;;;;;24.65;48.42;99991.35;1692450;84;21082;-87
2021/06/08 06:13:54;;;;;;;2.40;2.12;;;;;;;24.70;48.17;99992.66;1694636;83;21065;-86
2021/06/08 06:16:22;;;;;;;3.47;3.17;;;;;;;24.77;48.22;99982.75;1654924;85;21094;-89
2021/06/08 06:18:48;;;;;;;2.25;2.15;;;;;;;24.89;46.61;99977.70;1650545;85;21164;-87
2021/06/08 06:21:17;;;;;;;1.52;1.42;;;;;;;24.77;46.80;99986.84;1618659;87;21051;-88
2021/06/08 06:23:44;;;;;;;1.60;1.50;;;;;;;24.66;47.53;99982.09;1659742;84;21025;-85
2021/06/08 06:26:10;;;;;;;1.50;1.40;;;;;;;24.86;46.35;99976.91;1672678;84;21041;-87
2021/06/08 06:28:41;;;;;;;4.50;1.10;;;;;;;25.07;45.53;99970.63;1657185;85;21030;-86
2021/06/08 06:31:09;;;;;;;1.98;1.20;;;;;;;25.23;45.12;99969.91;1654408;84;21037;-85
2021/06/08 06:33:36;;;;;;;1.17;1.07;;;;;;;25.35;44.35;99970.25;1656560;85;21013;-85
2021/06/08 06:36:07;;;;;;;1.52;1.42;;;;;;;25.33;45.08;99967.02;1654767;85;21057;-86
2021/06/08 06:38:35;;;;;;;1.98;0.93;;;;;;;25.46;44.90;99966.83;1659414;85;21050;-86
2021/06/08 06:41:08;;;;;;;0.72;0.72;;;;;;;25.56;44.43;99967.22;1656347;85;20982;-87
2021/06/08 06:43:39;;;;;;;1.55;0.60;;;;;;;25.58;43.52;99963.09;1659435;85;21045;-87
2021/06/08 06:46:07;;;;;;;2.92;0.50;;;;;;;25.44;43.53;99969.84;1666229;85;21056;-86
2021/06/08 06:48:37;;;;;;;1.17;0.90;;;;;;;25.11;44.28;99967.60;1655953;85;21128;-86
2021/06/08 06:51:06;;;;;;;0.70;0.70;;;;;;;24.96;45.33;99959.08;1687519;83;21524;-88
2021/06/08 06:53:35;;;;;;;1.45;1.02;;;;;;;25.12;45.02;99966.48;1663696;85;21101;-87
2021/06/08 06:56:02;;;;;;;1.85;1.00;;;;;;;25.25;44.86;99967.70;1647031;83;21126;-83
2021/06/08 06:58:28;;;;;;;0.72;0.60;;;;;;;25.11;45.16;99962.67;1638800;85;21069;-86
2021/06/08 07:00:54;;;;;;;3.25;0.95;;;;;;;25.02;45.49;99966.08;1643686;82;21100;-86
2021/06/08 07:03:30;;;;;;;0.85;0.82;;;;;;;25.14;45.95;99967.55;1661939;85;21516;-87
2021/06/08 07:05:58;;;;;;;2.75;0.78;;;;;;;25.32;44.23;99959.16;1634171;85;21080;-88
2021/06/08 07:08:26;;;;;;;1.70;0.55;;;;;;;25.37;43.82;99968.07;1648738;85;21562;-86
2021/06/08 07:10:56;;;;;;;2.45;0.80;;;;;;;25.51;44.31;99963.22;1643852;85;21040;-85
2021/06/08 07:13:23;;;;;;;1.10;1.00;;;;;;;25.68;43.14;99962.11;1666275;84;21076;-85
2021/06/08 07:15:53;;;;;;;0.90;0.70;;;;;;;25.66;42.36;99971.16;1668203;84;21049;-85
2021/06/08 07:18:21;;;;;;;2.05;1.00;;;;;;;25.40;43.65;99971.55;1660214;85;22017;-85
2021/06/08 07:20:49;;;;;;;1.02;0.93;;;;;;;25.25;43.80;99973.15;1647053;85;21029;-86
2021/06/08 07:23:20;;;;;;;4.00;0.85;;;;;;;25.16;44.39;99974.32;1636391;86;21045;-90
2021/06/08 07:25:50;;;;;;;3.22;1.10;;;;;;;25.13;44.43;99960.47;1634061;87;21126;-91
2021/06/08 07:28:19;;;;;;;1.85;1.35;;;;;;;25.06;44.60;99967.10;1660932;84;21060;-92
2021/06/08 07:30:50;;;;;;;1.00;0.82;;;;;;;25.12;44.14;99969.20;1672584;85;21046;-90
2021/06/08 07:33:43;;;;;;;3.30;1.70;;;;;;;24.99;44.22;99965.84;1661893;84;20978;-92
2021/06/08 07:36:28;;;;;;;1.32;1.25;;;;;;;24.83;44.20;99967.42;1626297;86;21045;-91
2021/06/08 07:39:28;;;;;;;1.55;1.45;;;;;;;24.56;45.32;99973.46;1650191;85;21085;-90
2021/06/08 07:42:20;;;;;;;3.42;1.62;;;;;;;24.43;45.64;99965.95;1617483;87;21093;-92
2021/06/08 07:45:04;;;;;;;1.37;1.30;;;;;;;24.33;45.66;99960.08;1607550;85;21176;-92
2021/06/08 07:47:33;;;;;;;1.50;1.40;;;;;;;24.15;45.91;99965.73;1639646;86;21603;-92
2021/06/08 07:50:05;;;;;;;1.80;1.40;;;;;;;24.02;45.74;99970.49;1662483;85;21082;-90
2021/06/08 07:52:34;;;;;;;1.35;1.22;;;;;;;23.95;46.26;99972.73;1651052;86;21034;-92
2021/06/08 07:55:02;;;;;;;1.27;1.17;;;;;;;23.91;46.65;99975.21;1650229;85;21319;-92
2021/06/08 07:57:28;;;;;;;3.12;1.20;;;;;;;23.86;46.59;99973.33;1644361;85;21090;-91
2021/06/08 07:59:57;;;;;;;2.02;1.12;;;;;;;23.82;47.12;99968.20;1649224;86;21100;-91
2021/06/08 08:02:25;;;;;;;1.52;1.42;;;;;;;23.84;46.50;99965.20;1635920;87;21056;-91
2021/06/08 08:04:52;;;;;;;1.92;1.82;;;;;;;23.81;47.41;99965.76;1641541;86;21032;-91
2021/06/08 08:07:25;;;;;;;1.10;1.10;;;;;;;23.73;46.59;99971.23;1606852;87;21035;-90
2021/06/08 08:09:53;;;;;;;1.05;1.05;;;;;;;23.68;46.71;99969.38;1611512;87;21055;-84
2021/06/08 08:12:22;;;;;;;2.08;1.57;;;;;;;23.69;46.96;99961.47;1622954;87;21043;-84
2021/06/08 08:14:51;;;;;;;2.02;1.30;;;;;;;23.79;47.56;99966.07;1623905;87;21112;-82
2021/06/08 08:17:23;;;;;;;0.93;0.78;;;;;;;23.84;46.68;99964.64;1615911;86;21159;-83
2021/06/08 08:19:51;;;;;;;4.10;1.07;;;;;;;23.83;47.03;99967.67;1626190;86;20994;-81
2021/06/08 08:22:18;;;;;;;0.82;0.82;;;;;;;23.77;47.85;99965.52;1627303;86;21020;-82
2021/06/08 08:24:44;;;;;;;1.47;0.88;;;;;;;23.81;47.69;99967.12;1648651;85;21108;-82
2021/06/08 08:27:13;;;;;;;1.82;1.10;;;;;;;23.84;47.32;99969.28;1624922;85;21649;-83
2021/06/08 08:29:41;;;;;;;4.25;0.50;;;;;;;23.86;47.20;99958.36;1638815;85;21059;-85
2021/06/08 08:32:09;;;;;;;0.75;0.50;;;;;;;23.87;47.10;99957.28;1662016;84;21140;-87
2021/06/08 08:34:35;;;;;;;1.62;0.70;;;;;;;23.87;46.78;99958.64;1661747;82;21053;-85
2021/06/08 08:37:02;;;;;;;1.12;0.47;;;;;;;23.90;46.81;99960.80;1639827;85;21568;-87
2021/06/08 08:39:48;;;;;;;1.82;0.50;;;;;;;23.95;46.60;99965.92;1630920;85;21802;-85
2021/06/08 08:42:17;;;;;;;4.30;0.65;;;;;;;23.94;46.55;99960.20;1631332;85;21067;-88
2021/06/08 08:44:44;;;;;;;1.70;0.68;;;;;;;23.94;45.84;99952.04;1625659;83;21117;-84
2021/06/08 08:47:29;;;;;;;1.45;0.57;;;;;;;23.92;45.96;99951.52;1605128;88;21619;-86
2021/06/08 08:49:55;;;;;;;3.67;0.78;;;;;;;23.95;46.04;99942.23;1610431;89;21120;-85
2021/06/08 08:52:21;;;;;;;4.05;0.50;;;;;;;23.96;45.87;99951.20;1611595;87;21165;-85
2021/06/08 08:54:47;;;;;;;1.17;0.30;;;;;;;23.96;45.64;99945.76;1608853;89;21020;-85
2021/06/08 08:57:19;;;;;;;1.15;0.62;;;;;;;23.96;44.94;99947.95;1635249;83;21013;-87
2021/06/08 08:59:45;;;;;;;1.85;0.40;;;;;;;24.01;44.55;99945.72;1633170;86;21603;-86
2021/06/08 09:02:12;;;;;;;1.55;0.40;;;;;;;24.07;45.11;99945.92;1664683;85;21037;-87
2021/06/08 09:04:38;;;;;;;0.72;0.72;;;;;;;24.09;44.69;99942.36;1651270;84;21021;-84
2021/06/08 09:07:07;;;;;;;1.32;0.40;;;;;;;24.13;45.15;99939.87;1655263;84;21415;-86
2021/06/08 09:09:34;;;;;;;0.40;0.40;;;;;;;24.26;44.94;99929.12;1651661;84;21085;-89
2021/06/08 09:12:04;;;;;;;17.95;1.00;;;;;;;24.36;44.53;99935.56;1662263;83;21017;-89
2021/06/08 09:14:29;;;;;;;1.05;0.62;;;;;;;24.43;44.52;99929.19;1636294;86;21161;-85
2021/06/08 09:16:56;;;;;;;1.30;0.65;;;;;;;24.50;44.58;99939.19;1661880;84;21069;-87
2021/06/08 09:19:28;;;;;;;1.85;0.57;;;;;;;24.57;44.00;99938.88;1664146;84;21069;-87
2021/06/08 09:21:56;;;;;;;3.90;0.55;;;;;;;24.57;44.41;99936.95;1657590;84;21002;-86
2021/06/08 09:24:27;;;;;;;2.47;0.90;;;;;;;24.57;43.97;99932.06;1650096;84;21069;-86
2021/06/08 09:27:03;;;;;;;0.60;0.60;;;;;;;24.60;43.89;99939.11;1652922;84;21287;-84
2021/06/08 09:29:43;;;;;;;1.17;0.85;;;;;;;24.61;43.55;99939.91;1657763;84;21054;-88
2021/06/08 09:32:28;;;;;;;2.95;0.72;;;;;;;24.53;43.86;99935.92;1663487;84;21303;-86
2021/06/08 09:35:00;;;;;;;1.50;0.78;;;;;;;24.42;44.56;99935.75;1668490;84;21028;-85
2021/06/08 09:37:44;;;;;;;2.58;0.60;;;;;;;24.29;44.91;99928.52;1656303;84;21037;-84
2021/06/08 09:40:26;;;;;;;0.50;0.50;;;;;;;24.18;44.95;99921.57;1652986;84;21089;-83
2021/06/08 09:43:08;;;;;;;1.37;0.60;;;;;;;24.06;43.88;99919.25;1657343;86;21073;-84
2021/06/08 09:45:52;;;;;;;2.00;0.70;;;;;;;24.01;44.37;99920.66;1651751;84;21138;-84
2021/06/08 09:48:18;;;;;;;1.40;0.78;;;;;;;24.04;45.13;99909.77;1655248;84;21061;-84
2021/06/08 09:50:47;;;;;;;1.67;0.68;;;;;;;24.06;45.05;99908.92;1662984;84;21061;-81
2021/06/08 09:53:25;;;;;;;2.15;0.60;;;;;;;23.99;43.90;99907.08;1649769;84;21591;-80
2021/06/08 09:56:07;;;;;;;1.15;0.55;;;;;;;23.96;44.14;99900.84;1662062;84;21108;-83
2021/06/08 09:58:38;;;;;;;2.95;0.40;;;;;;;23.95;43.97;99896.52;1646322;84;21658;-86
2021/06/08 10:01:27;;;;;;;3.30;0.95;;;;;;;24.01;44.05;99901.60;1647191;84;21590;-80
2021/06/08 10:03:58;;;;;;;0.75;0.30;;;;;;;23.96;43.57;99898.12;1658956;84;21033;-84
2021/06/08 10:06:39;;;;;;;0.53;0.20;;;;;;;23.93;43.06;99903.61;1666754;86;21081;-90
2021/06/08 10:09:10;;;;;;;3.02;0.53;;;;;;;23.94;42.38;99906.60;1655099;86;21045;-90
2021/06/08 10:11:40;;;;;;;2.98;0.42;;;;;;;23.93;42.21;99899.52;1660381;86;21041;-90
2021/06/08 10:14:21;;;;;;;1.85;0.40;;;;;;;23.92;43.50;99898.45;1665006;80;21034;-79
2021/06/08 10:16:45;;;;;;;1.30;0.50;;;;;;;24.00;44.29;99892.39;1639346;81;21020;-90
2021/06/08 10:19:15;;;;;;;0.85;0.42;;;;;;;24.07;44.85;99893.66;1668608;80;21061;-91
2021/06/08 10:21:48;;;;;;;0.50;0.50;;;;;;;24.06;43.84;99889.30;1659715;84;21065;-88
2021/06/08 10:24:20;;;;;;;0.37;0.37;;;;;;;24.03;42.87;99875.46;1660327;84;21041;-90
2021/06/08 10:26:52;;;;;;;1.25;0.40;;;;;;;23.95;43.58;99877.47;1656835;84;21136;-87
2021/06/08 10:29:26;;;;;;;1.30;0.30;;;;;;;23.98;44.42;99865.98;1669613;85;21017;-91
2021/06/08 10:31:57;;;;;;;2.98;0.68;;;;;;;24.07;44.18;99876.50;1661585;84;21021;-90
2021/06/08 10:34:24;;;;;;;0.88;0.40;;;;;;;24.15;43.44;99870.96;1650959;84;21124;-89
2021/06/08 10:36:53;;;;;;;1.00;0.30;;;;;;;24.20;43.28;99866.83;1656946;84;21015;-89
2021/06/08 10:39:25;;;;;;;0.85;0.55;;;;;;;24.21;43.60;99874.71;1669653;86;21101;-90
2021/06/08 10:41:48;;;;;;;1.57;0.85;;;;;;;24.24;43.43;99874.14;1652422;84;21030;-87
2021/06/08 10:44:21;;;;;;;1.60;0.80;;;;;;;24.34;43.72;99862.30;1666406;84;21105;-88
2021/06/08 10:46:52;;;;;;;0.62;0.60;;;;;;;24.48;43.31;99854.22;1650427;84;21155;-88
2021/06/08 10:49:40;;;;;;;3.22;1.37;;;;;;;24.57;43.15;99857.94;1658190;84;21030;-91
2021/06/08 10:52:16;;;;;;;2.25;0.82;;;;;;;24.63;43.18;99849.95;1665001;86;20999;-90
2021/06/08 10:54:45;;;;;;;1.12;0.80;;;;;;;24.79;43.01;99859.27;1662432;84;20999;-89
2021/06/08 10:57:16;;;;;;;0.82;0.40;;;;;;;24.87;42.10;99852.61;1664332;84;21133;-88
2021/06/08 10:59:45;;;;;;;2.95;0.60;;;;;;;24.82;41.84;99843.69;1657011;84;21634;-91
2021/06/08 11:02:33;;;;;;;0.50;0.50;;;;;;;24.68;41.83;99844.44;1659556;84;21121;-89
2021/06/08 11:05:01;;;;;;;0.60;0.60;;;;;;;24.58;41.28;99845.12;1650385;84;21049;-89
2021/06/08 11:07:52;;;;;;;0.40;0.35;;;;;;;24.45;42.09;99847.45;1653572;84;22214;-89
2021/06/08 11:10:33;;;;;;;1.05;0.50;;;;;;;24.46;42.15;99855.06;1667767;84;21535;-88
2021/06/08 11:13:20;;;;;;;1.87;0.40;;;;;;;24.45;41.85;99855.63;1660546;84;21037;-89
2021/06/08 11:15:51;;;;;;;6.47;0.60;;;;;;;24.39;42.83;99860.05;1659614;84;21461;-88
2021/06/08 11:18:38;;;;;;;2.25;0.90;;;;;;;24.28;42.31;99844.42;1648969;85;21119;-87
2021/06/08 11:21:10;;;;;;;0.95;0.70;;;;;;;24.21;43.09;99862.45;1655266;84;21117;-87
2021/06/08 11:23:43;;;;;;;1.55;0.80;;;;;;;24.13;44.00;99855.47;1664598;84;21076;-87
2021/06/08 11:26:14;;;;;;;1.07;0.70;;;;;;;24.11;44.44;99861.23;1638739;85;21063;-86
2021/06/08 11:28:47;;;;;;;1.47;0.60;;;;;;;24.16;44.66;99853.54;1661483;84;21049;-86
2021/06/08 11:31:18;;;;;;;2.40;0.88;;;;;;;24.20;44.81;99839.04;1661492;84;20986;-85
2021/06/08 11:33:48;;;;;;;0.88;0.88;;;;;;;24.24;44.92;99835.19;1648089;84;21025;-88
2021/06/08 11:36:25;;;;;;;2.87;0.82;;;;;;;24.29;44.65;99837.29;1656383;84;21113;-87
2021/06/08 11:39:20;;;;;;;2.47;0.55;;;;;;;24.43;44.84;99840.66;1657885;84;21088;-87
2021/06/08 11:42:03;;;;;;;1.45;0.80;;;;;;;24.51;43.88;99829.12;1656501;84;21006;-88
2021/06/08 11:44:30;;;;;;;1.57;1.02;;;;;;;24.63;43.56;99829.52;1656482;84;21619;-86
2021/06/08 11:47:05;;;;;;;1.42;0.53;;;;;;;24.73;43.17;99819.02;1662046;84;21074;-86
2021/06/08 11:49:32;;;;;;;4.00;0.50;;;;;;;24.80;42.81;99814.56;1662909;86;21049;-88
2021/06/08 11:52:09;;;;;;;0.75;0.50;;;;;;;24.84;42.71;99791.86;1662516;84;21065;-86
2021/06/08 11:54:43;;;;;;;1.27;0.68;;;;;;;24.85;42.73;99826.76;1668428;84;21186;-85